sensor_id;sensor_type;location;lat;lon;timestamp;temperature;humidity
53432;DHT22;39329;44.754;19.680;2022-09-09T00:02:20;22.70;99.90
53432;DHT22;39329;44.754;19.680;2022-09-09T00:04:58;22.80;99.90
53432;DHT22;39329;44.754;19.680;2022-09-09T00:07:30;22.80;99.90
53432;DHT22;39329;44.754;19.680;2022-09-09T00:10:00;22.80;99.90
53432;DHT22;39329;44.754;19.680;2022-09-09T00:15:14;22.80;99.90
53432;DHT22;39329;44.754;19.680;2022-09-09T00:20:32;22.80;99.90
53432;DHT22;39329;44.754;19.680;2022-09-09T00:27:54;22.80;99.90
53432;DHT22;39329;44.754;19.680;2022-09-09T00:30:21;22.80;99.90
53432;DHT22;39329;44.754;19.680;2022-09-09T00:32:48;22.70;99.90
53432;DHT22;39329;44.754;19.680;2022-09-09T00:37:41;22.50;99.90
53432;DHT22;39329;44.754;19.680;2022-09-09T00:40:15;22.50;99.90
53432;DHT22;39329;44.754;19.680;2022-09-09T00:42:43;22.40;99.90
53432;DHT22;39329;44.754;19.680;2022-09-09T00:47:52;22.40;99.90
53432;DHT22;39329;44.754;19.680;2022-09-09T00:53:14;22.20;99.90
53432;DHT22;39329;44.754;19.680;2022-09-09T01:49:16;22.20;99.90
53432;DHT22;39329;44.754;19.680;2022-09-09T01:51:42;22.20;99.90
53432;DHT22;39329;44.754;19.680;2022-09-09T01:54:08;22.20;99.90
53432;DHT22;39329;44.754;19.680;2022-09-09T02:04:22;22.30;99.90
53432;DHT22;39329;44.754;19.680;2022-09-09T02:06:48;22.30;99.90
53432;DHT22;39329;44.754;19.680;2022-09-09T02:09:17;22.20;99.90
53432;DHT22;39329;44.754;19.680;2022-09-09T02:11:44;22.30;99.90
53432;DHT22;39329;44.754;19.680;2022-09-09T02:14:16;22.20;99.90
53432;DHT22;39329;44.754;19.680;2022-09-09T02:16:44;22.20;99.90
53432;DHT22;39329;44.754;19.680;2022-09-09T02:19:20;22.20;99.90
53432;DHT22;39329;44.754;19.680;2022-09-09T02:21:52;22.20;99.90
53432;DHT22;39329;44.754;19.680;2022-09-09T02:24:19;22.10;99.90
53432;DHT22;39329;44.754;19.680;2022-09-09T02:26:46;22.10;99.90
53432;DHT22;39329;44.754;19.680;2022-09-09T02:29:20;22.10;99.90
53432;DHT22;39329;44.754;19.680;2022-09-09T02:31:46;22.10;99.90
53432;DHT22;39329;44.754;19.680;2022-09-09T02:34:13;22.10;99.90
53432;DHT22;39329;44.754;19.680;2022-09-09T02:36:39;22.00;99.90
53432;DHT22;39329;44.754;19.680;2022-09-09T03:03:28;22.00;99.90
53432;DHT22;39329;44.754;19.680;2022-09-09T03:05:54;21.90;99.90
53432;DHT22;39329;44.754;19.680;2022-09-09T03:08:19;21.80;99.90
53432;DHT22;39329;44.754;19.680;2022-09-09T03:10:45;21.80;99.90
53432;DHT22;39329;44.754;19.680;2022-09-09T03:13:10;21.80;99.90
53432;DHT22;39329;44.754;19.680;2022-09-09T03:15:38;21.80;99.90
53432;DHT22;39329;44.754;19.680;2022-09-09T03:20:29;21.70;99.90
53432;DHT22;39329;44.754;19.680;2022-09-09T03:22:55;21.70;99.90
53432;DHT22;39329;44.754;19.680;2022-09-09T03:25:21;21.70;99.90
53432;DHT22;39329;44.754;19.680;2022-09-09T03:27:49;21.70;99.90
53432;DHT22;39329;44.754;19.680;2022-09-09T03:39:58;21.70;99.90
53432;DHT22;39329;44.754;19.680;2022-09-09T03:42:25;21.80;99.90
53432;DHT22;39329;44.754;19.680;2022-09-09T03:44:50;21.70;99.90
53432;DHT22;39329;44.754;19.680;2022-09-09T03:47:17;21.70;99.90
53432;DHT22;39329;44.754;19.680;2022-09-09T03:49:43;21.70;99.90
53432;DHT22;39329;44.754;19.680;2022-09-09T03:52:09;21.70;99.90
53432;DHT22;39329;44.754;19.680;2022-09-09T03:54:35;21.70;99.90
53432;DHT22;39329;44.754;19.680;2022-09-09T03:57:01;21.70;99.90
53432;DHT22;39329;44.754;19.680;2022-09-09T03:59:26;21.60;99.90
53432;DHT22;39329;44.754;19.680;2022-09-09T04:01:52;21.70;99.90
53432;DHT22;39329;44.754;19.680;2022-09-09T04:04:18;21.70;99.90
53432;DHT22;39329;44.754;19.680;2022-09-09T04:06:45;21.70;99.90
53432;DHT22;39329;44.754;19.680;2022-09-09T04:09:11;21.70;99.90
53432;DHT22;39329;44.754;19.680;2022-09-09T04:11:36;21.70;99.90
53432;DHT22;39329;44.754;19.680;2022-09-09T04:14:02;21.70;99.90
53432;DHT22;39329;44.754;19.680;2022-09-09T04:16:28;21.70;99.90
53432;DHT22;39329;44.754;19.680;2022-09-09T04:18:53;21.70;99.90
53432;DHT22;39329;44.754;19.680;2022-09-09T04:21:19;21.70;99.90
53432;DHT22;39329;44.754;19.680;2022-09-09T04:23:44;21.70;99.90
53432;DHT22;39329;44.754;19.680;2022-09-09T04:26:10;21.70;99.90
53432;DHT22;39329;44.754;19.680;2022-09-09T04:28:36;21.60;99.90
53432;DHT22;39329;44.754;19.680;2022-09-09T04:31:09;21.60;99.90
53432;DHT22;39329;44.754;19.680;2022-09-09T04:33:36;21.70;99.90
53432;DHT22;39329;44.754;19.680;2022-09-09T04:36:02;21.60;99.90
53432;DHT22;39329;44.754;19.680;2022-09-09T04:38:27;21.60;99.90
53432;DHT22;39329;44.754;19.680;2022-09-09T04:40:53;21.60;99.90
53432;DHT22;39329;44.754;19.680;2022-09-09T04:43:19;21.70;99.90
53432;DHT22;39329;44.754;19.680;2022-09-09T04:45:49;21.70;99.90
53432;DHT22;39329;44.754;19.680;2022-09-09T04:48:16;21.60;99.90
53432;DHT22;39329;44.754;19.680;2022-09-09T05:17:30;21.60;99.90
53432;DHT22;39329;44.754;19.680;2022-09-09T05:19:55;21.90;99.90
53432;DHT22;39329;44.754;19.680;2022-09-09T06:16:04;21.90;99.90
53432;DHT22;39329;44.754;19.680;2022-09-09T06:18:30;22.50;99.90
53432;DHT22;39329;44.754;19.680;2022-09-09T06:20:56;22.50;99.90
53432;DHT22;39329;44.754;19.680;2022-09-09T06:23:22;22.50;99.90
53432;DHT22;39329;44.754;19.680;2022-09-09T06:25:48;22.50;99.90
53432;DHT22;39329;44.754;19.680;2022-09-09T06:28:14;22.40;99.90
53432;DHT22;39329;44.754;19.680;2022-09-09T06:30:40;22.40;99.90
53432;DHT22;39329;44.754;19.680;2022-09-09T06:33:06;22.40;99.90
53432;DHT22;39329;44.754;19.680;2022-09-09T06:35:32;22.40;99.90
53432;DHT22;39329;44.754;19.680;2022-09-09T06:37:57;22.40;99.90
53432;DHT22;39329;44.754;19.680;2022-09-09T06:40:24;22.40;99.90
53432;DHT22;39329;44.754;19.680;2022-09-09T06:42:49;22.50;99.90
53432;DHT22;39329;44.754;19.680;2022-09-09T07:19:23;23.20;99.90
53432;DHT22;39329;44.754;19.680;2022-09-09T07:21:49;23.60;99.90
53432;DHT22;39329;44.754;19.680;2022-09-09T07:26:41;23.60;99.90
53432;DHT22;39329;44.754;19.680;2022-09-09T07:31:34;23.70;99.90
53432;DHT22;39329;44.754;19.680;2022-09-09T07:34:00;23.60;99.90
53432;DHT22;39329;44.754;19.680;2022-09-09T07:36:27;23.60;99.90
53432;DHT22;39329;44.754;19.680;2022-09-09T07:38:54;23.60;99.90
53432;DHT22;39329;44.754;19.680;2022-09-09T07:41:21;23.40;99.90
53432;DHT22;39329;44.754;19.680;2022-09-09T07:43:47;23.60;99.90
53432;DHT22;39329;44.754;19.680;2022-09-09T07:46:14;23.30;99.90
53432;DHT22;39329;44.754;19.680;2022-09-09T07:51:11;23.80;99.90
53432;DHT22;39329;44.754;19.680;2022-09-09T07:53:40;23.90;99.90
53432;DHT22;39329;44.754;19.680;2022-09-09T08:01:00;24.90;99.90
53432;DHT22;39329;44.754;19.680;2022-09-09T08:03:31;25.00;99.90
53432;DHT22;39329;44.754;19.680;2022-09-09T08:05:59;25.80;99.90
53432;DHT22;39329;44.754;19.680;2022-09-09T08:08:26;26.30;99.90
53432;DHT22;39329;44.754;19.680;2022-09-09T08:10:52;27.10;99.90
53432;DHT22;39329;44.754;19.680;2022-09-09T08:13:18;27.00;99.90
53432;DHT22;39329;44.754;19.680;2022-09-09T08:15:43;27.70;99.90
53432;DHT22;39329;44.754;19.680;2022-09-09T08:18:09;29.20;99.90
53432;DHT22;39329;44.754;19.680;2022-09-09T08:20:35;29.00;99.90
53432;DHT22;39329;44.754;19.680;2022-09-09T08:23:01;28.50;99.90
53432;DHT22;39329;44.754;19.680;2022-09-09T08:25:27;28.10;99.90
53432;DHT22;39329;44.754;19.680;2022-09-09T08:27:53;28.00;99.90
53432;DHT22;39329;44.754;19.680;2022-09-09T08:30:18;28.20;99.90
53432;DHT22;39329;44.754;19.680;2022-09-09T08:32:44;28.20;99.90
53432;DHT22;39329;44.754;19.680;2022-09-09T08:35:09;28.70;99.90
53432;DHT22;39329;44.754;19.680;2022-09-09T08:37:35;28.70;99.90
53432;DHT22;39329;44.754;19.680;2022-09-09T08:40:00;28.50;99.90
53432;DHT22;39329;44.754;19.680;2022-09-09T08:44:59;29.00;99.90
53432;DHT22;39329;44.754;19.680;2022-09-09T08:57:51;29.60;99.90
53432;DHT22;39329;44.754;19.680;2022-09-09T09:00:18;29.40;99.90
53432;DHT22;39329;44.754;19.680;2022-09-09T09:05:25;29.10;99.90
53432;DHT22;39329;44.754;19.680;2022-09-09T09:10:25;29.00;99.90
53432;DHT22;39329;44.754;19.680;2022-09-09T09:12:55;29.20;99.90
53432;DHT22;39329;44.754;19.680;2022-09-09T09:15:26;29.50;99.90
53432;DHT22;39329;44.754;19.680;2022-09-09T09:17:55;29.60;99.90
53432;DHT22;39329;44.754;19.680;2022-09-09T09:21:08;29.60;99.90
53432;DHT22;39329;44.754;19.680;2022-09-09T09:23:09;29.80;99.90
53432;DHT22;39329;44.754;19.680;2022-09-09T09:25:38;29.60;99.90
53432;DHT22;39329;44.754;19.680;2022-09-09T09:33:16;29.60;99.90
53432;DHT22;39329;44.754;19.680;2022-09-09T09:35:43;29.40;99.90
53432;DHT22;39329;44.754;19.680;2022-09-09T09:38:25;29.70;99.90
53432;DHT22;39329;44.754;19.680;2022-09-09T09:40:52;29.80;99.90
53432;DHT22;39329;44.754;19.680;2022-09-09T09:43:30;29.70;99.90
53432;DHT22;39329;44.754;19.680;2022-09-09T09:45:56;29.70;99.90
53432;DHT22;39329;44.754;19.680;2022-09-09T09:48:23;29.70;99.90
53432;DHT22;39329;44.754;19.680;2022-09-09T09:50:49;29.80;99.90
53432;DHT22;39329;44.754;19.680;2022-09-09T09:53:20;29.70;99.90
53432;DHT22;39329;44.754;19.680;2022-09-09T09:55:52;29.80;99.90
53432;DHT22;39329;44.754;19.680;2022-09-09T09:58:18;29.70;99.90
53432;DHT22;39329;44.754;19.680;2022-09-09T10:00:47;30.00;99.90
53432;DHT22;39329;44.754;19.680;2022-09-09T10:03:30;29.80;99.90
53432;DHT22;39329;44.754;19.680;2022-09-09T10:05:56;30.00;99.90
53432;DHT22;39329;44.754;19.680;2022-09-09T10:08:23;30.20;99.90
53432;DHT22;39329;44.754;19.680;2022-09-09T10:10:54;30.30;99.90
53432;DHT22;39329;44.754;19.680;2022-09-09T10:53:02;31.30;99.90
53432;DHT22;39329;44.754;19.680;2022-09-09T10:55:35;31.00;99.90
53432;DHT22;39329;44.754;19.680;2022-09-09T10:58:03;31.00;99.90
53432;DHT22;39329;44.754;19.680;2022-09-09T11:00:40;31.10;99.90
53432;DHT22;39329;44.754;19.680;2022-09-09T11:03:06;31.00;99.90
53432;DHT22;39329;44.754;19.680;2022-09-09T11:05:47;31.10;99.90
53432;DHT22;39329;44.754;19.680;2022-09-09T11:13:23;30.80;99.90
53432;DHT22;39329;44.754;19.680;2022-09-09T11:15:59;31.00;99.90
53432;DHT22;39329;44.754;19.680;2022-09-09T11:18:26;31.20;99.90
53432;DHT22;39329;44.754;19.680;2022-09-09T11:23:27;31.30;99.90
53432;DHT22;39329;44.754;19.680;2022-09-09T12:29:25;32.30;99.90
53432;DHT22;39329;44.754;19.680;2022-09-09T12:34:41;32.30;99.90
53432;DHT22;39329;44.754;19.680;2022-09-09T12:37:15;32.30;99.90
53432;DHT22;39329;44.754;19.680;2022-09-09T12:39:45;32.30;99.90
53432;DHT22;39329;44.754;19.680;2022-09-09T12:42:18;32.40;99.90
53432;DHT22;39329;44.754;19.680;2022-09-09T12:44:50;32.60;99.90
53432;DHT22;39329;44.754;19.680;2022-09-09T12:47:16;32.40;99.90
53432;DHT22;39329;44.754;19.680;2022-09-09T12:49:43;32.40;99.90
53432;DHT22;39329;44.754;19.680;2022-09-09T12:52:14;32.30;99.90
53432;DHT22;39329;44.754;19.680;2022-09-09T12:54:43;32.00;99.90
53432;DHT22;39329;44.754;19.680;2022-09-09T12:57:13;31.90;99.90
53432;DHT22;39329;44.754;19.680;2022-09-09T13:02:16;31.40;99.90
53432;DHT22;39329;44.754;19.680;2022-09-09T13:04:43;31.50;99.90
53432;DHT22;39329;44.754;19.680;2022-09-09T13:07:09;31.00;99.90
53432;DHT22;39329;44.754;19.680;2022-09-09T13:09:36;30.70;99.90
53432;DHT22;39329;44.754;19.680;2022-09-09T13:14:29;30.40;99.90
53432;DHT22;39329;44.754;19.680;2022-09-09T13:17:01;30.40;99.90
53432;DHT22;39329;44.754;19.680;2022-09-09T13:19:28;30.20;99.90
53432;DHT22;39329;44.754;19.680;2022-09-09T13:21:54;30.20;99.90
53432;DHT22;39329;44.754;19.680;2022-09-09T13:24:24;30.20;99.90
53432;DHT22;39329;44.754;19.680;2022-09-09T13:26:57;30.20;99.90
53432;DHT22;39329;44.754;19.680;2022-09-09T13:29:23;30.40;99.90
53432;DHT22;39329;44.754;19.680;2022-09-09T13:31:48;30.50;99.90
53432;DHT22;39329;44.754;19.680;2022-09-09T13:34:30;30.60;99.90
53432;DHT22;39329;44.754;19.680;2022-09-09T13:36:58;30.50;99.90
53432;DHT22;39329;44.754;19.680;2022-09-09T13:39:24;30.30;99.90
53432;DHT22;39329;44.754;19.680;2022-09-09T13:41:50;30.30;99.90
53432;DHT22;39329;44.754;19.680;2022-09-09T13:49:30;30.40;99.90
53432;DHT22;39329;44.754;19.680;2022-09-09T13:52:03;30.20;99.90
53432;DHT22;39329;44.754;19.680;2022-09-09T13:54:29;30.10;99.90
53432;DHT22;39329;44.754;19.680;2022-09-09T13:56:56;30.10;99.90
53432;DHT22;39329;44.754;19.680;2022-09-09T13:59:21;30.20;99.90
53432;DHT22;39329;44.754;19.680;2022-09-09T14:01:47;30.20;99.90
53432;DHT22;39329;44.754;19.680;2022-09-09T14:04:14;30.20;99.90
53432;DHT22;39329;44.754;19.680;2022-09-09T14:06:41;30.10;99.90
53432;DHT22;39329;44.754;19.680;2022-09-09T14:09:07;30.40;99.90
53432;DHT22;39329;44.754;19.680;2022-09-09T14:11:33;30.60;99.90
53432;DHT22;39329;44.754;19.680;2022-09-09T14:13:59;30.80;99.90
53432;DHT22;39329;44.754;19.680;2022-09-09T14:16:26;31.00;99.90
53432;DHT22;39329;44.754;19.680;2022-09-09T14:18:53;31.10;99.90
53432;DHT22;39329;44.754;19.680;2022-09-09T14:21:18;31.10;99.90
53432;DHT22;39329;44.754;19.680;2022-09-09T14:23:44;31.20;99.90
53432;DHT22;39329;44.754;19.680;2022-09-09T14:26:09;31.30;99.90
53432;DHT22;39329;44.754;19.680;2022-09-09T14:28:35;31.20;99.90
53432;DHT22;39329;44.754;19.680;2022-09-09T14:31:02;31.20;99.90
53432;DHT22;39329;44.754;19.680;2022-09-09T14:33:27;31.10;99.90
53432;DHT22;39329;44.754;19.680;2022-09-09T14:35:56;30.90;99.90
53432;DHT22;39329;44.754;19.680;2022-09-09T14:38:22;30.90;99.90
53432;DHT22;39329;44.754;19.680;2022-09-09T14:40:47;30.70;99.90
53432;DHT22;39329;44.754;19.680;2022-09-09T14:43:13;30.70;99.90
53432;DHT22;39329;44.754;19.680;2022-09-09T14:45:39;30.70;99.90
53432;DHT22;39329;44.754;19.680;2022-09-09T14:48:05;30.80;99.90
53432;DHT22;39329;44.754;19.680;2022-09-09T14:50:30;30.50;99.90
53432;DHT22;39329;44.754;19.680;2022-09-09T14:52:56;30.60;99.90
53432;DHT22;39329;44.754;19.680;2022-09-09T14:55:21;30.60;99.90
53432;DHT22;39329;44.754;19.680;2022-09-09T14:57:47;30.40;99.90
53432;DHT22;39329;44.754;19.680;2022-09-09T15:00:12;30.30;99.90
53432;DHT22;39329;44.754;19.680;2022-09-09T15:02:38;30.50;99.90
53432;DHT22;39329;44.754;19.680;2022-09-09T15:05:06;30.50;99.90
53432;DHT22;39329;44.754;19.680;2022-09-09T15:07:32;30.50;99.90
53432;DHT22;39329;44.754;19.680;2022-09-09T15:09:57;30.30;99.90
53432;DHT22;39329;44.754;19.680;2022-09-09T15:12:23;30.30;99.90
53432;DHT22;39329;44.754;19.680;2022-09-09T15:14:49;30.30;99.90
53432;DHT22;39329;44.754;19.680;2022-09-09T15:17:15;30.30;99.90
53432;DHT22;39329;44.754;19.680;2022-09-09T15:19:41;30.30;99.90
53432;DHT22;39329;44.754;19.680;2022-09-09T15:22:07;30.30;99.90
53432;DHT22;39329;44.754;19.680;2022-09-09T15:24:33;30.10;99.90
53432;DHT22;39329;44.754;19.680;2022-09-09T15:29:27;29.80;99.90
53432;DHT22;39329;44.754;19.680;2022-09-09T15:31:53;30.00;99.90
53432;DHT22;39329;44.754;19.680;2022-09-09T15:34:19;29.90;99.90
53432;DHT22;39329;44.754;19.680;2022-09-09T15:39:12;30.40;99.90
53432;DHT22;39329;44.754;19.680;2022-09-09T15:41:38;29.80;99.90
53432;DHT22;39329;44.754;19.680;2022-09-09T15:44:04;29.70;99.90
53432;DHT22;39329;44.754;19.680;2022-09-09T15:48:58;29.50;99.90
53432;DHT22;39329;44.754;19.680;2022-09-09T15:58:46;28.70;99.90
53432;DHT22;39329;44.754;19.680;2022-09-09T16:03:38;28.90;99.90
53432;DHT22;39329;44.754;19.680;2022-09-09T16:06:04;28.80;99.90
53432;DHT22;39329;44.754;19.680;2022-09-09T16:10:56;28.70;99.90
53432;DHT22;39329;44.754;19.680;2022-09-09T16:13:28;28.80;99.90
53432;DHT22;39329;44.754;19.680;2022-09-09T16:15:54;28.60;99.90
53432;DHT22;39329;44.754;19.680;2022-09-09T16:18:20;28.70;99.90
53432;DHT22;39329;44.754;19.680;2022-09-09T16:20:53;28.60;99.90
53432;DHT22;39329;44.754;19.680;2022-09-09T16:43:02;28.10;99.90
53432;DHT22;39329;44.754;19.680;2022-09-09T16:47:54;28.00;99.90
53432;DHT22;39329;44.754;19.680;2022-09-09T16:50:20;28.10;99.90
53432;DHT22;39329;44.754;19.680;2022-09-09T16:55:11;28.00;99.90
53432;DHT22;39329;44.754;19.680;2022-09-09T17:07:26;27.50;99.90
53432;DHT22;39329;44.754;19.680;2022-09-09T17:19:40;27.50;99.90
53432;DHT22;39329;44.754;19.680;2022-09-09T17:22:06;27.70;99.90
53432;DHT22;39329;44.754;19.680;2022-09-09T17:24:32;27.70;99.90
53432;DHT22;39329;44.754;19.680;2022-09-09T17:26:59;27.60;99.90
53432;DHT22;39329;44.754;19.680;2022-09-09T17:29:25;27.60;99.90
53432;DHT22;39329;44.754;19.680;2022-09-09T17:31:50;27.50;99.90
53432;DHT22;39329;44.754;19.680;2022-09-09T17:36:42;27.30;99.90
53432;DHT22;39329;44.754;19.680;2022-09-09T17:41:37;27.20;99.90
53432;DHT22;39329;44.754;19.680;2022-09-09T17:44:03;27.30;99.90
53432;DHT22;39329;44.754;19.680;2022-09-09T17:46:36;27.40;99.90
53432;DHT22;39329;44.754;19.680;2022-09-09T17:49:06;27.20;99.90
53432;DHT22;39329;44.754;19.680;2022-09-09T17:51:32;27.30;99.90
53432;DHT22;39329;44.754;19.680;2022-09-09T17:54:00;27.40;99.90
53432;DHT22;39329;44.754;19.680;2022-09-09T17:56:26;27.30;99.90
53432;DHT22;39329;44.754;19.680;2022-09-09T18:08:40;26.90;99.90
53432;DHT22;39329;44.754;19.680;2022-09-09T18:11:06;27.00;99.90
53432;DHT22;39329;44.754;19.680;2022-09-09T18:13:32;26.90;99.90
53432;DHT22;39329;44.754;19.680;2022-09-09T18:15:58;26.90;99.90
53432;DHT22;39329;44.754;19.680;2022-09-09T18:33:18;26.50;99.90
53432;DHT22;39329;44.754;19.680;2022-09-09T18:45:33;25.50;99.90
53432;DHT22;39329;44.754;19.680;2022-09-09T18:47:59;25.30;99.90
53432;DHT22;39329;44.754;19.680;2022-09-09T18:50:25;25.00;99.90
53432;DHT22;39329;44.754;19.680;2022-09-09T18:52:51;24.10;99.90
53432;DHT22;39329;44.754;19.680;2022-09-09T18:57:43;24.10;99.90
53432;DHT22;39329;44.754;19.680;2022-09-09T19:00:08;24.00;99.90
53432;DHT22;39329;44.754;19.680;2022-09-09T19:02:34;24.10;99.90
53432;DHT22;39329;44.754;19.680;2022-09-09T19:05:00;23.50;99.90
53432;DHT22;39329;44.754;19.680;2022-09-09T19:12:19;24.40;99.90
53432;DHT22;39329;44.754;19.680;2022-09-09T19:14:45;23.30;99.90
53432;DHT22;39329;44.754;19.680;2022-09-09T19:19:39;23.40;99.90
53432;DHT22;39329;44.754;19.680;2022-09-09T19:22:06;23.40;99.90
53432;DHT22;39329;44.754;19.680;2022-09-09T19:27:03;23.40;99.90
53432;DHT22;39329;44.754;19.680;2022-09-09T19:29:31;23.30;99.90
53432;DHT22;39329;44.754;19.680;2022-09-09T19:31:57;23.20;99.90
53432;DHT22;39329;44.754;19.680;2022-09-09T19:34:24;23.30;99.90
53432;DHT22;39329;44.754;19.680;2022-09-09T19:36:51;23.30;99.90
53432;DHT22;39329;44.754;19.680;2022-09-09T19:39:17;23.30;99.90
53432;DHT22;39329;44.754;19.680;2022-09-09T19:41:42;23.30;99.90
53432;DHT22;39329;44.754;19.680;2022-09-09T19:44:09;23.30;99.90
53432;DHT22;39329;44.754;19.680;2022-09-09T19:46:36;23.40;99.90
53432;DHT22;39329;44.754;19.680;2022-09-09T19:49:03;23.30;99.90
53432;DHT22;39329;44.754;19.680;2022-09-09T19:51:29;23.40;99.90
53432;DHT22;39329;44.754;19.680;2022-09-09T19:53:59;23.40;99.90
53432;DHT22;39329;44.754;19.680;2022-09-09T19:56:28;23.10;99.90
53432;DHT22;39329;44.754;19.680;2022-09-09T19:58:54;22.90;99.90
53432;DHT22;39329;44.754;19.680;2022-09-09T20:01:24;23.10;99.90
53432;DHT22;39329;44.754;19.680;2022-09-09T20:03:50;23.10;99.90
53432;DHT22;39329;44.754;19.680;2022-09-09T20:06:17;22.90;99.90
53432;DHT22;39329;44.754;19.680;2022-09-09T20:08:44;22.80;99.90
53432;DHT22;39329;44.754;19.680;2022-09-09T20:13:38;24.00;99.90
53432;DHT22;39329;44.754;19.680;2022-09-09T20:16:05;22.70;99.90
53432;DHT22;39329;44.754;19.680;2022-09-09T20:18:38;22.70;99.90
53432;DHT22;39329;44.754;19.680;2022-09-09T20:21:06;22.60;99.90
53432;DHT22;39329;44.754;19.680;2022-09-09T20:23:34;22.70;99.90
53432;DHT22;39329;44.754;19.680;2022-09-09T20:26:02;22.80;99.90
53432;DHT22;39329;44.754;19.680;2022-09-09T20:28:31;22.90;99.90
53432;DHT22;39329;44.754;19.680;2022-09-09T20:31:02;22.90;99.90
53432;DHT22;39329;44.754;19.680;2022-09-09T20:33:27;23.00;99.90
53432;DHT22;39329;44.754;19.680;2022-09-09T20:35:53;23.00;99.90
53432;DHT22;39329;44.754;19.680;2022-09-09T20:38:18;22.90;99.90
53432;DHT22;39329;44.754;19.680;2022-09-09T20:40:44;22.90;99.90
53432;DHT22;39329;44.754;19.680;2022-09-09T20:43:10;22.90;99.90
53432;DHT22;39329;44.754;19.680;2022-09-09T20:55:26;22.90;99.90
53432;DHT22;39329;44.754;19.680;2022-09-09T20:57:52;22.60;99.90
53432;DHT22;39329;44.754;19.680;2022-09-09T21:00:17;22.70;99.90
53432;DHT22;39329;44.754;19.680;2022-09-09T21:02:43;22.60;99.90
53432;DHT22;39329;44.754;19.680;2022-09-09T21:05:08;22.60;99.90
53432;DHT22;39329;44.754;19.680;2022-09-09T21:07:35;22.50;99.90
53432;DHT22;39329;44.754;19.680;2022-09-09T21:10:01;22.50;99.90
53432;DHT22;39329;44.754;19.680;2022-09-09T21:12:26;22.50;99.90
53432;DHT22;39329;44.754;19.680;2022-09-09T21:14:52;22.50;99.90
53432;DHT22;39329;44.754;19.680;2022-09-09T21:17:17;22.50;99.90
53432;DHT22;39329;44.754;19.680;2022-09-09T21:19:43;22.60;99.90
53432;DHT22;39329;44.754;19.680;2022-09-09T21:22:09;22.50;99.90
53432;DHT22;39329;44.754;19.680;2022-09-09T21:24:35;22.50;99.90
53432;DHT22;39329;44.754;19.680;2022-09-09T21:27:02;22.40;99.90
53432;DHT22;39329;44.754;19.680;2022-09-09T21:29:28;22.40;99.90
53432;DHT22;39329;44.754;19.680;2022-09-09T21:31:53;22.50;99.90
53432;DHT22;39329;44.754;19.680;2022-09-09T21:34:20;22.40;99.90
53432;DHT22;39329;44.754;19.680;2022-09-09T21:36:45;22.50;99.90
53432;DHT22;39329;44.754;19.680;2022-09-09T21:39:11;22.40;99.90
53432;DHT22;39329;44.754;19.680;2022-09-09T21:41:36;22.40;99.90
53432;DHT22;39329;44.754;19.680;2022-09-09T21:44:02;22.30;99.90
53432;DHT22;39329;44.754;19.680;2022-09-09T21:46:28;22.20;99.90
53432;DHT22;39329;44.754;19.680;2022-09-09T21:48:54;22.60;99.90
53432;DHT22;39329;44.754;19.680;2022-09-09T21:51:20;22.20;99.90
53432;DHT22;39329;44.754;19.680;2022-09-09T21:53:46;22.30;99.90
53432;DHT22;39329;44.754;19.680;2022-09-09T21:56:12;22.30;99.90
53432;DHT22;39329;44.754;19.680;2022-09-09T21:58:38;22.30;99.90
53432;DHT22;39329;44.754;19.680;2022-09-09T22:01:15;22.20;99.90
53432;DHT22;39329;44.754;19.680;2022-09-09T22:03:41;22.30;99.90
53432;DHT22;39329;44.754;19.680;2022-09-09T22:06:08;22.30;99.90
53432;DHT22;39329;44.754;19.680;2022-09-09T22:08:34;22.30;99.90
53432;DHT22;39329;44.754;19.680;2022-09-09T22:11:06;22.30;99.90
53432;DHT22;39329;44.754;19.680;2022-09-09T22:13:32;22.30;99.90
53432;DHT22;39329;44.754;19.680;2022-09-09T22:16:00;22.30;99.90
53432;DHT22;39329;44.754;19.680;2022-09-09T22:18:27;22.40;99.90
53432;DHT22;39329;44.754;19.680;2022-09-09T22:20:55;22.40;99.90
53432;DHT22;39329;44.754;19.680;2022-09-09T22:23:20;22.50;99.90
53432;DHT22;39329;44.754;19.680;2022-09-09T22:25:47;22.50;99.90
53432;DHT22;39329;44.754;19.680;2022-09-09T22:28:14;22.50;99.90
53432;DHT22;39329;44.754;19.680;2022-09-09T23:34:07;22.60;99.90
53432;DHT22;39329;44.754;19.680;2022-09-09T23:36:32;22.00;99.90
53432;DHT22;39329;44.754;19.680;2022-09-09T23:38:59;21.90;99.90
53432;DHT22;39329;44.754;19.680;2022-09-09T23:41:26;21.80;99.90
53432;DHT22;39329;44.754;19.680;2022-09-09T23:43:52;21.70;99.90
53432;DHT22;39329;44.754;19.680;2022-09-09T23:56:07;21.80;99.90
53432;DHT22;39329;44.754;19.680;2022-09-09T23:58:33;21.50;99.90
